Vano — SBNM — position and weather

sailwx.info

Track history (hours):
 
Tides and Currents Weather Stations Pressure Air Temp Water Temp Dewpoint Dewpoint Depression Visibility Wind Speed Wind Dir Waves Ship Positions

Vano

Last reported at 2016-Aug-31 15:33 UTC. Time now 2016-Aug-31 16:02 UTC.
Position N 59°19' E 018°05'.

Length 38 m; draft 1.8 m.

Type: Passenger vessel. MMSI: 265520400.

Date/timePositionNaut miles runAvg speedWind from/ knotsBaromVisibWave heightAir tempDewpointWater temp
2016-Aug-31 15:33N 59°19' E 018°05'0 0.3
2016-Aug-31 14:33N 59°20' E 018°04'0 0.0
2016-Aug-31 13:33N 59°20' E 018°04'0 0.0
2016-Aug-31 12:33N 59°20' E 018°04'0 0.0
2016-Aug-31 11:33N 59°20' E 018°04'0 0.0
2016-Aug-31 10:33N 59°20' E 018°04'0 0.0
2016-Aug-31 09:33N 59°20' E 018°04'0 0.0
2016-Aug-31 08:33N 59°20' E 018°04'5 5.2
2016-Aug-31 07:34N 59°21' E 018°14'6 0.1
2016-Aug-29 14:27N 59°26' E 018°22'6 7.0
2016-Aug-29 13:33N 59°21' E 018°14'5 5.0
2016-Aug-29 12:33N 59°20' E 018°05'0 0.0
2016-Aug-29 11:33N 59°20' E 018°05'0 0.0
2016-Aug-29 10:33N 59°20' E 018°05'0 0.0
2016-Aug-29 09:33N 59°20' E 018°05'0 0.0
2016-Aug-29 08:33N 59°20' E 018°05'0 0.0
2016-Aug-29 07:33N 59°20' E 018°05'0 0.0
2016-Aug-29 06:33N 59°20' E 018°05'0 0.0
2016-Aug-29 05:33N 59°20' E 018°05'0 0.0
2016-Aug-29 04:33N 59°20' E 018°05'0 0.0
2016-Aug-29 03:33N 59°20' E 018°05'0 0.0
2016-Aug-29 02:34N 59°20' E 018°05'0 0.0
2016-Aug-29 01:34N 59°20' E 018°05'0 0.0
2016-Aug-29 00:34N 59°20' E 018°05'0 0.0
2016-Aug-28 23:34N 59°20' E 018°05'0 0.0
2016-Aug-28 22:34N 59°20' E 018°05'0 0.0
2016-Aug-28 21:34N 59°20' E 018°05'0 0.0
2016-Aug-28 20:34N 59°20' E 018°05'0 0.0
2016-Aug-28 19:33N 59°20' E 018°05'4 4.4
2016-Aug-28 18:33N 59°20' E 018°13'6 1.4
2016-Aug-28 14:33N 59°24' E 018°21'10 9.6
2016-Aug-28 13:33N 59°20' E 018°05'5 5.5
2016-Aug-28 12:33N 59°22' E 018°15'3 0.7
2016-Aug-28 07:33N 59°23' E 018°20'9 8.8
2016-Aug-28 06:33N 59°20' E 018°05'0 0.0
2016-Aug-28 05:34N 59°20' E 018°05'0 0.0
2016-Aug-28 04:34N 59°20' E 018°05'0 0.0
2016-Aug-28 03:33N 59°20' E 018°05'0 0.0
2016-Aug-28 02:34N 59°20' E 018°05'0 0.0
2016-Aug-28 01:34N 59°20' E 018°04'0 0.0
2016-Aug-28 00:33N 59°20' E 018°05'0 0.0
2016-Aug-27 23:34N 59°20' E 018°05'0 0.0
2016-Aug-27 22:33N 59°20' E 018°05'0 0.0
2016-Aug-27 21:34N 59°20' E 018°05'0 0.0
2016-Aug-27 20:34N 59°20' E 018°05'0 0.0
2016-Aug-27 19:33N 59°20' E 018°05'0 0.0
2016-Aug-27 18:33N 59°20' E 018°05'0 0.0
2016-Aug-27 17:34N 59°20' E 018°05'2 1.9
2016-Aug-27 16:33N 59°19' E 018°08'8 0.9
2016-Aug-27 07:30N 59°24' E 018°21'1010.3
2016-Aug-27 06:34N 59°19' E 018°05'0 0.2
2016-Aug-27 04:33N 59°20' E 018°05'0 0.0
2016-Aug-27 03:33N 59°20' E 018°05'0 0.0
2016-Aug-27 02:34N 59°20' E 018°05'0 0.0
2016-Aug-27 01:34N 59°20' E 018°05'0 0.0
2016-Aug-27 00:34N 59°20' E 018°05'0 0.0
2016-Aug-26 23:34N 59°20' E 018°05'0 0.0
2016-Aug-26 22:34N 59°20' E 018°05'0 0.0
2016-Aug-26 21:34N 59°20' E 018°05'0 0.0
2016-Aug-26 20:34N 59°20' E 018°05'1 0.6
2016-Aug-26 19:34N 59°19' E 018°05'11 3.4
2016-Aug-26 16:25N 59°23' E 018°25'2 1.6
2016-Aug-26 15:05N 59°24' E 018°22'3 4.8
2016-Aug-26 14:33N 59°22' E 018°18'7 7.5
2016-Aug-26 13:33N 59°20' E 018°05'0 0.0
2016-Aug-26 12:33N 59°20' E 018°05'0 0.1
2016-Aug-26 11:33N 59°20' E 018°05'0 0.0
2016-Aug-26 10:34N 59°20' E 018°05'0 0.0
2016-Aug-26 09:33N 59°20' E 018°05'0 0.0
2016-Aug-26 08:33N 59°20' E 018°05'0 0.0
2016-Aug-26 07:34N 59°20' E 018°05'0 0.0
2016-Aug-26 06:33N 59°20' E 018°05'0 0.0
2016-Aug-26 04:33N 59°20' E 018°05'0 0.0
2016-Aug-26 03:33N 59°20' E 018°05'0 0.0
2016-Aug-26 02:33N 59°20' E 018°05'0 0.0
2016-Aug-26 01:33N 59°20' E 018°05'0 0.0
2016-Aug-26 00:33N 59°20' E 018°05'0 0.0
2016-Aug-25 23:33N 59°20' E 018°05'0 0.0
2016-Aug-25 22:33N 59°20' E 018°05'0 0.0
2016-Aug-25 21:33N 59°20' E 018°05'0 0.0
2016-Aug-25 20:33N 59°20' E 018°05'0 0.0
2016-Aug-25 19:33N 59°20' E 018°05'0 0.0
2016-Aug-25 18:33N 59°20' E 018°05'0 0.0
2016-Aug-25 17:32N 59°20' E 018°05'0 0.0
2016-Aug-25 14:22N 59°20' E 018°05'0 0.0
2016-Aug-25 12:29N 59°20' E 018°05'0 0.0
2016-Aug-25 07:29N 59°20' E 018°05'10 3.3
2016-Aug-25 04:32N 59°24' E 018°22'1 0.6
2016-Aug-25 03:33N 59°24' E 018°21'0 0.0
2016-Aug-25 02:33N 59°24' E 018°21'0 0.0
2016-Aug-25 01:33N 59°24' E 018°21'0 0.0
2016-Aug-25 00:33N 59°24' E 018°21'0 0.0
2016-Aug-24 23:33N 59°24' E 018°21'0 0.0
2016-Aug-24 22:32N 59°24' E 018°21'2 0.3
2016-Aug-24 16:33N 59°23' E 018°19'8 7.5
2016-Aug-24 15:34N 59°20' E 018°05'0 0.0
2016-Aug-24 14:33N 59°20' E 018°05'0 0.0
2016-Aug-24 13:33N 59°20' E 018°05'0 0.0
2016-Aug-24 12:33N 59°20' E 018°05'0 0.0
2016-Aug-24 11:33N 59°20' E 018°05'0 0.0
2016-Aug-24 10:34N 59°20' E 018°05'0 0.0
2016-Aug-24 09:33N 59°20' E 018°05'0 0.0
2016-Aug-24 08:33N 59°20' E 018°05'6 6.3
2016-Aug-24 07:33N 59°22' E 018°17'7 6.8
2016-Aug-24 06:34N 59°26' E 018°28'7 0.5
2016-Aug-23 15:28N 59°23' E 018°42'3 3.3
2016-Aug-23 14:33N 59°22' E 018°36'4 3.4
2016-Aug-23 13:27N 59°24' E 018°43'2 0.4
2016-Aug-23 09:30N 59°23' E 018°46'6 1.2
2016-Aug-23 04:33N 59°29' E 018°50'1 1.4
2016-Aug-23 03:33N 59°30' E 018°51'0 0.0
2016-Aug-23 02:33N 59°30' E 018°51'0 0.0
2016-Aug-23 01:33N 59°30' E 018°51'0 0.0
2016-Aug-23 00:33N 59°30' E 018°51'0 0.0
2016-Aug-22 23:33N 59°30' E 018°51'0 0.0
2016-Aug-22 22:33N 59°30' E 018°51'0 0.0
2016-Aug-22 21:33N 59°30' E 018°51'0 0.0
2016-Aug-22 20:33N 59°30' E 018°51'0 0.0
2016-Aug-22 19:34N 59°30' E 018°51'0 0.0
2016-Aug-22 18:33N 59°30' E 018°51'0 0.0
2016-Aug-22 17:33N 59°30' E 018°51'16 5.0
2016-Aug-22 14:24N 59°25' E 018°21'5 6.4
2016-Aug-22 13:34N 59°21' E 018°15'5 5.3
2016-Aug-22 12:34N 59°20' E 018°04'0 0.0
2016-Aug-22 11:33N 59°20' E 018°04'0 0.0
2016-Aug-22 10:34N 59°20' E 018°04'0 0.0
2016-Aug-22 09:34N 59°20' E 018°04'0 0.0
2016-Aug-22 08:34N 59°20' E 018°05'0 0.0
2016-Aug-22 07:33N 59°20' E 018°04'0 0.0
2016-Aug-22 06:34N 59°20' E 018°04'0 0.0
2016-Aug-22 05:33N 59°20' E 018°04'0 0.0
2016-Aug-22 04:34N 59°20' E 018°04'0 0.0
2016-Aug-22 03:34N 59°20' E 018°04'0 0.0
2016-Aug-22 02:33N 59°20' E 018°04'0 0.0
2016-Aug-22 01:34N 59°20' E 018°04'0 0.0
2016-Aug-22 00:34N 59°20' E 018°05'0 0.0
2016-Aug-21 23:34N 59°20' E 018°04'0 0.0
2016-Aug-21 22:34N 59°20' E 018°04'0 0.0
2016-Aug-21 21:34N 59°20' E 018°04'0 0.0
2016-Aug-21 20:34N 59°20' E 018°05'0 0.0
2016-Aug-21 19:33N 59°20' E 018°04'0 0.0
2016-Aug-21 18:34N 59°20' E 018°04'8 8.3
2016-Aug-21 17:33N 59°23' E 018°20'  
Track history (hours):
 
Tides and Currents Weather Stations Pressure Air Temp Water Temp Dewpoint Dewpoint Depression Visibility Wind Speed Wind Dir Waves Ship Positions

Vano

Last reported at 2016-Aug-31 15:33 UTC. Time now 2016-Aug-31 16:02 UTC.
Position N 59°19' E 018°05'.

Length 38 m; draft 1.8 m.

Type: Passenger vessel. MMSI: 265520400.

Date/timePositionNaut miles runAvg speedWind from/ knotsBaromVisibWave heightAir tempDewpointWater temp
2016-Aug-31 15:33N 59°19' E 018°05'0 0.3
2016-Aug-31 14:33N 59°20' E 018°04'0 0.0
2016-Aug-31 13:33N 59°20' E 018°04'0 0.0
2016-Aug-31 12:33N 59°20' E 018°04'0 0.0
2016-Aug-31 11:33N 59°20' E 018°04'0 0.0
2016-Aug-31 10:33N 59°20' E 018°04'0 0.0
2016-Aug-31 09:33N 59°20' E 018°04'0 0.0
2016-Aug-31 08:33N 59°20' E 018°04'5 5.2
2016-Aug-31 07:34N 59°21' E 018°14'6 0.1
2016-Aug-29 14:27N 59°26' E 018°22'6 7.0
2016-Aug-29 13:33N 59°21' E 018°14'5 5.0
2016-Aug-29 12:33N 59°20' E 018°05'0 0.0
2016-Aug-29 11:33N 59°20' E 018°05'0 0.0
2016-Aug-29 10:33N 59°20' E 018°05'0 0.0
2016-Aug-29 09:33N 59°20' E 018°05'0 0.0
2016-Aug-29 08:33N 59°20' E 018°05'0 0.0
2016-Aug-29 07:33N 59°20' E 018°05'0 0.0
2016-Aug-29 06:33N 59°20' E 018°05'0 0.0
2016-Aug-29 05:33N 59°20' E 018°05'0 0.0
2016-Aug-29 04:33N 59°20' E 018°05'0 0.0
2016-Aug-29 03:33N 59°20' E 018°05'0 0.0
2016-Aug-29 02:34N 59°20' E 018°05'0 0.0
2016-Aug-29 01:34N 59°20' E 018°05'0 0.0
2016-Aug-29 00:34N 59°20' E 018°05'0 0.0
2016-Aug-28 23:34N 59°20' E 018°05'0 0.0
2016-Aug-28 22:34N 59°20' E 018°05'0 0.0
2016-Aug-28 21:34N 59°20' E 018°05'0 0.0
2016-Aug-28 20:34N 59°20' E 018°05'0 0.0
2016-Aug-28 19:33N 59°20' E 018°05'4 4.4
2016-Aug-28 18:33N 59°20' E 018°13'6 1.4
2016-Aug-28 14:33N 59°24' E 018°21'10 9.6
2016-Aug-28 13:33N 59°20' E 018°05'5 5.5
2016-Aug-28 12:33N 59°22' E 018°15'3 0.7
2016-Aug-28 07:33N 59°23' E 018°20'9 8.8
2016-Aug-28 06:33N 59°20' E 018°05'0 0.0
2016-Aug-28 05:34N 59°20' E 018°05'0 0.0
2016-Aug-28 04:34N 59°20' E 018°05'0 0.0
2016-Aug-28 03:33N 59°20' E 018°05'0 0.0
2016-Aug-28 02:34N 59°20' E 018°05'0 0.0
2016-Aug-28 01:34N 59°20' E 018°04'0 0.0
2016-Aug-28 00:33N 59°20' E 018°05'0 0.0
2016-Aug-27 23:34N 59°20' E 018°05'0 0.0
2016-Aug-27 22:33N 59°20' E 018°05'0 0.0
2016-Aug-27 21:34N 59°20' E 018°05'0 0.0
2016-Aug-27 20:34N 59°20' E 018°05'0 0.0
2016-Aug-27 19:33N 59°20' E 018°05'0 0.0
2016-Aug-27 18:33N 59°20' E 018°05'0 0.0
2016-Aug-27 17:34N 59°20' E 018°05'2 1.9
2016-Aug-27 16:33N 59°19' E 018°08'8 0.9
2016-Aug-27 07:30N 59°24' E 018°21'1010.3
2016-Aug-27 06:34N 59°19' E 018°05'0 0.2
2016-Aug-27 04:33N 59°20' E 018°05'0 0.0
2016-Aug-27 03:33N 59°20' E 018°05'0 0.0
2016-Aug-27 02:34N 59°20' E 018°05'0 0.0
2016-Aug-27 01:34N 59°20' E 018°05'0 0.0
2016-Aug-27 00:34N 59°20' E 018°05'0 0.0
2016-Aug-26 23:34N 59°20' E 018°05'0 0.0
2016-Aug-26 22:34N 59°20' E 018°05'0 0.0
2016-Aug-26 21:34N 59°20' E 018°05'0 0.0
2016-Aug-26 20:34N 59°20' E 018°05'1 0.6
2016-Aug-26 19:34N 59°19' E 018°05'11 3.4
2016-Aug-26 16:25N 59°23' E 018°25'2 1.6
2016-Aug-26 15:05N 59°24' E 018°22'3 4.8
2016-Aug-26 14:33N 59°22' E 018°18'7 7.5
2016-Aug-26 13:33N 59°20' E 018°05'0 0.0
2016-Aug-26 12:33N 59°20' E 018°05'0 0.1
2016-Aug-26 11:33N 59°20' E 018°05'0 0.0
2016-Aug-26 10:34N 59°20' E 018°05'0 0.0
2016-Aug-26 09:33N 59°20' E 018°05'0 0.0
2016-Aug-26 08:33N 59°20' E 018°05'0 0.0
2016-Aug-26 07:34N 59°20' E 018°05'0 0.0
2016-Aug-26 06:33N 59°20' E 018°05'0 0.0
2016-Aug-26 04:33N 59°20' E 018°05'0 0.0
2016-Aug-26 03:33N 59°20' E 018°05'0 0.0
2016-Aug-26 02:33N 59°20' E 018°05'0 0.0
2016-Aug-26 01:33N 59°20' E 018°05'0 0.0
2016-Aug-26 00:33N 59°20' E 018°05'0 0.0
2016-Aug-25 23:33N 59°20' E 018°05'0 0.0
2016-Aug-25 22:33N 59°20' E 018°05'0 0.0
2016-Aug-25 21:33N 59°20' E 018°05'0 0.0
2016-Aug-25 20:33N 59°20' E 018°05'0 0.0
2016-Aug-25 19:33N 59°20' E 018°05'0 0.0
2016-Aug-25 18:33N 59°20' E 018°05'0 0.0
2016-Aug-25 17:32N 59°20' E 018°05'0 0.0
2016-Aug-25 14:22N 59°20' E 018°05'0 0.0
2016-Aug-25 12:29N 59°20' E 018°05'0 0.0
2016-Aug-25 07:29N 59°20' E 018°05'10 3.3
2016-Aug-25 04:32N 59°24' E 018°22'1 0.6
2016-Aug-25 03:33N 59°24' E 018°21'0 0.0
2016-Aug-25 02:33N 59°24' E 018°21'0 0.0
2016-Aug-25 01:33N 59°24' E 018°21'0 0.0
2016-Aug-25 00:33N 59°24' E 018°21'0 0.0
2016-Aug-24 23:33N 59°24' E 018°21'0 0.0
2016-Aug-24 22:32N 59°24' E 018°21'2 0.3
2016-Aug-24 16:33N 59°23' E 018°19'8 7.5
2016-Aug-24 15:34N 59°20' E 018°05'0 0.0
2016-Aug-24 14:33N 59°20' E 018°05'0 0.0
2016-Aug-24 13:33N 59°20' E 018°05'0 0.0
2016-Aug-24 12:33N 59°20' E 018°05'0 0.0
2016-Aug-24 11:33N 59°20' E 018°05'0 0.0
2016-Aug-24 10:34N 59°20' E 018°05'0 0.0
2016-Aug-24 09:33N 59°20' E 018°05'0 0.0
2016-Aug-24 08:33N 59°20' E 018°05'6 6.3
2016-Aug-24 07:33N 59°22' E 018°17'7 6.8
2016-Aug-24 06:34N 59°26' E 018°28'7 0.5
2016-Aug-23 15:28N 59°23' E 018°42'3 3.3
2016-Aug-23 14:33N 59°22' E 018°36'4 3.4
2016-Aug-23 13:27N 59°24' E 018°43'2 0.4
2016-Aug-23 09:30N 59°23' E 018°46'6 1.2
2016-Aug-23 04:33N 59°29' E 018°50'1 1.4
2016-Aug-23 03:33N 59°30' E 018°51'0 0.0
2016-Aug-23 02:33N 59°30' E 018°51'0 0.0
2016-Aug-23 01:33N 59°30' E 018°51'0 0.0
2016-Aug-23 00:33N 59°30' E 018°51'0 0.0
2016-Aug-22 23:33N 59°30' E 018°51'0 0.0
2016-Aug-22 22:33N 59°30' E 018°51'0 0.0
2016-Aug-22 21:33N 59°30' E 018°51'0 0.0
2016-Aug-22 20:33N 59°30' E 018°51'0 0.0
2016-Aug-22 19:34N 59°30' E 018°51'0 0.0
2016-Aug-22 18:33N 59°30' E 018°51'0 0.0
2016-Aug-22 17:33N 59°30' E 018°51'16 5.0
2016-Aug-22 14:24N 59°25' E 018°21'5 6.4
2016-Aug-22 13:34N 59°21' E 018°15'5 5.3
2016-Aug-22 12:34N 59°20' E 018°04'0 0.0
2016-Aug-22 11:33N 59°20' E 018°04'0 0.0
2016-Aug-22 10:34N 59°20' E 018°04'0 0.0
2016-Aug-22 09:34N 59°20' E 018°04'0 0.0
2016-Aug-22 08:34N 59°20' E 018°05'0 0.0
2016-Aug-22 07:33N 59°20' E 018°04'0 0.0
2016-Aug-22 06:34N 59°20' E 018°04'0 0.0
2016-Aug-22 05:33N 59°20' E 018°04'0 0.0
2016-Aug-22 04:34N 59°20' E 018°04'0 0.0
2016-Aug-22 03:34N 59°20' E 018°04'0 0.0
2016-Aug-22 02:33N 59°20' E 018°04'0 0.0
2016-Aug-22 01:34N 59°20' E 018°04'0 0.0
2016-Aug-22 00:34N 59°20' E 018°05'0 0.0
2016-Aug-21 23:34N 59°20' E 018°04'0 0.0
2016-Aug-21 22:34N 59°20' E 018°04'0 0.0
2016-Aug-21 21:34N 59°20' E 018°04'0 0.0
2016-Aug-21 20:34N 59°20' E 018°05'0 0.0
2016-Aug-21 19:33N 59°20' E 018°04'0 0.0
2016-Aug-21 18:34N 59°20' E 018°04'8 8.3
2016-Aug-21 17:33N 59°23' E 018°20'  

Dump ship's entire track history